Airfield :
LOGIN :

Register | Disclaimer

   EN    FR    IT 

 










Legend :    VFR   Marginal VFR   IFR   Intensive IFR   Very Intensive IFR
Visi :
Ceiling :
>= 8 km
>= 3000ft
5 to 8 km
1000 to 3000 ft
1500m to 5 km
500 to 1000 ft
800 to 1500m
200 to 500 ft
< 800m
< 200 ft
Symbols :   Thunderstorms  Fog  Heavy snow  Heavy precipitations  Wind > 20 kt
SIGMETs :     Misc.  Thunderstorms  Icing  Turbulence  Mountain Waves  Volcanic Ashes






- Airport Elevation : 335 ft
- IATA code : BEG


LYBE - Belgrade Nikola Tesla

CURRENT METAR :
  • 301030Z 32010KT 9999 BKN033 09/01 Q1018 NOSIG

EXPIRED METARs :
  • 301000Z 31011KT 9999 BKN030 08/01 Q1018 NOSIG
  • 300930Z 31013KT 9999 SCT027 BKN037 08/01 Q1018 NOSIG
  • 300900Z 31014KT 9999 SCT027 BKN040 08/01 Q1018 NOSIG
  • 300830Z 32013KT 9999 SCT033 08/01 Q1017 NOSIG
  • 300800Z 32015KT 9999 FEW040 08/02 Q1017 NOSIG
  • 300730Z 32015KT CAVOK 08/02 Q1017 NOSIG

TAF TAF LYBE
Valid from the 30 at 06:00 until the 31 at 06:00 UTC


300500Z 3006/3106 30009KT 9999 SCT033 TX12/3012Z TN03/3104Z
TEMPO 3008/3018 33020KT



MET'MAP, your aeronautical weather chart ! - Copyright ORBIFLY December 2007 - Disclaimer

ORBIFLY MET'MAP TEAM :

Programming & Development : Alexandra Zaïnal
Concept & original design : Baudouin d'Aumeries
Assistance for programming : Marc-Olivier Méhu
Technical & hardware support : Manuel Goepfert

Contact : metmap@orbifly.com




SOURCES & CREDITS :

   NOAA